Angelica, Wisconsin
Current Conditions -  °F | °C
As of 7:53 AM on Thursday 27 Nov 2014 (Local Time) from KGRB Reporting Station
Overcast Overcast  
Wind Chill:   Ceiling: 3800
Heat Index: 16°   Visibility: 10mi
Dew Point:   Wind: 13mph
Humidity: 71%   Direction: 350°N
Pressure: 30.31"   Gusts: NA
Location:  44.6594°N, 88.2945°W
Report Text: KGRB 271353Z 35011KT 10SM OVC038 M09/M13 A3031 RMK AO2 SLP280 T10891133
Loading
Personal Weather Stations






























Interactive Weather Map New forecast layout! Learn more

10-Day Weather Forecast

Advertisements
Track Severe Weather on mobile